createdAt,value
2024-05-09T00:00:40.445Z,1.10
2024-05-09T00:03:09.840Z,1.07
2024-05-09T00:05:38.098Z,1.10
2024-05-09T00:08:05.529Z,1.10
2024-05-09T00:10:37.103Z,1.17
2024-05-09T00:13:07.165Z,1.67
2024-05-09T00:15:35.058Z,1.10
2024-05-09T00:18:03.259Z,1.30
2024-05-09T00:20:37.634Z,1.60
2024-05-09T00:23:13.918Z,1.97
2024-05-09T00:25:44.574Z,1.60
2024-05-09T00:28:12.327Z,1.10
2024-05-09T00:30:39.333Z,1.10
2024-05-09T00:33:07.783Z,1.20
2024-05-09T00:35:35.983Z,1.17
2024-05-09T00:38:03.108Z,1.00
2024-05-09T00:40:40.431Z,1.20
2024-05-09T00:43:10.498Z,1.20
2024-05-09T00:45:37.439Z,1.10
2024-05-09T00:48:07.737Z,1.77
2024-05-09T00:50:37.956Z,1.17
2024-05-09T00:53:11.077Z,1.00
2024-05-09T00:55:39.627Z,1.30
2024-05-09T00:58:09.042Z,1.13
2024-05-09T01:00:39.767Z,1.13
2024-05-09T01:03:13.035Z,1.43
2024-05-09T01:05:44.426Z,1.40
2024-05-09T01:08:12.772Z,1.20
2024-05-09T01:10:42.840Z,1.30
2024-05-09T01:13:11.814Z,1.33
2024-05-09T01:15:38.573Z,1.13
2024-05-09T01:18:13.714Z,1.20
2024-05-09T01:20:43.874Z,1.27
2024-05-09T01:23:14.418Z,1.30
2024-05-09T01:25:43.511Z,1.30
2024-05-09T01:28:10.536Z,1.40
2024-05-09T01:30:38.122Z,1.17
2024-05-09T01:33:08.065Z,1.47
2024-05-09T01:35:37.041Z,1.33
2024-05-09T01:38:04.280Z,1.30
2024-05-09T01:40:38.322Z,1.40
2024-05-09T01:43:11.203Z,1.33
2024-05-09T01:45:40.042Z,1.47
2024-05-09T01:48:08.158Z,1.50
2024-05-09T01:50:39.691Z,1.30
2024-05-09T01:53:10.286Z,1.23
2024-05-09T01:55:37.262Z,1.50
2024-05-09T01:58:04.235Z,1.50
2024-05-09T02:00:38.724Z,1.40
2024-05-09T02:03:10.737Z,2.20
2024-05-09T02:05:39.435Z,1.40
2024-05-09T02:08:07.268Z,1.30
2024-05-09T02:10:34.057Z,1.80
2024-05-09T02:13:01.186Z,1.57
2024-05-09T02:15:27.990Z,1.50
2024-05-09T02:17:55.333Z,1.70
2024-05-09T02:20:30.607Z,1.53
2024-05-09T02:23:04.052Z,1.60
2024-05-09T02:25:31.913Z,1.57
2024-05-09T02:27:59.016Z,1.63
2024-05-09T02:30:35.790Z,1.60
2024-05-09T02:33:07.339Z,1.40
2024-05-09T02:35:34.630Z,1.77
2024-05-09T02:38:01.572Z,1.70
2024-05-09T02:40:36.023Z,1.40
2024-05-09T02:43:05.945Z,1.33
2024-05-09T02:45:33.331Z,1.47
2024-05-09T02:48:00.969Z,1.40
2024-05-09T02:50:34.621Z,1.30
2024-05-09T02:53:06.346Z,1.50
2024-05-09T02:55:33.297Z,1.70
2024-05-09T02:58:00.347Z,1.63
2024-05-09T03:00:35.241Z,1.40
2024-05-09T03:03:08.490Z,1.80
2024-05-09T03:05:36.946Z,1.67
2024-05-09T03:08:04.423Z,1.63
2024-05-09T03:10:36.014Z,1.67
2024-05-09T03:13:13.236Z,1.60
2024-05-09T03:15:41.982Z,1.63
2024-05-09T03:18:09.045Z,2.10
2024-05-09T03:20:37.115Z,1.70
2024-05-09T03:23:05.693Z,1.57
2024-05-09T03:25:33.226Z,1.47
2024-05-09T03:28:00.063Z,1.53
2024-05-09T03:30:38.727Z,1.63
2024-05-09T03:33:20.151Z,1.43
2024-05-09T03:35:48.393Z,1.50
2024-05-09T03:38:15.847Z,1.70
2024-05-09T03:40:46.792Z,1.60
2024-05-09T03:43:14.701Z,1.60
2024-05-09T03:45:45.421Z,1.40
2024-05-09T03:48:12.766Z,1.60
2024-05-09T03:50:40.030Z,1.60
2024-05-09T03:53:10.269Z,2.63
2024-05-09T03:55:37.138Z,1.80
2024-05-09T03:58:04.944Z,1.87
2024-05-09T04:00:37.743Z,2.00
2024-05-09T04:03:09.318Z,1.90
2024-05-09T04:05:40.691Z,1.77
2024-05-09T04:08:09.198Z,1.93
2024-05-09T04:10:36.222Z,1.80
2024-05-09T04:13:04.259Z,2.13
2024-05-09T04:15:31.454Z,1.70
2024-05-09T04:17:58.654Z,2.30
2024-05-09T04:20:35.958Z,1.67
2024-05-09T04:23:07.314Z,1.80
2024-05-09T04:25:34.942Z,1.90
2024-05-09T04:28:01.788Z,1.63
2024-05-09T04:30:37.501Z,1.87
2024-05-09T04:33:09.555Z,1.80
2024-05-09T04:35:38.815Z,1.67
2024-05-09T04:38:06.102Z,1.87
2024-05-09T04:40:36.003Z,1.87
2024-05-09T04:43:13.623Z,2.00
2024-05-09T04:45:40.779Z,2.17
2024-05-09T04:48:08.189Z,1.87
2024-05-09T04:50:38.333Z,1.87
2024-05-09T04:53:08.464Z,1.70
2024-05-09T04:55:36.831Z,2.10
2024-05-09T04:58:03.831Z,1.70
2024-05-09T05:00:36.331Z,1.80
2024-05-09T05:03:13.436Z,1.93
2024-05-09T05:05:43.503Z,2.20
2024-05-09T05:08:17.013Z,1.90
2024-05-09T05:10:45.379Z,2.10
2024-05-09T05:13:25.038Z,2.03
2024-05-09T05:15:58.705Z,2.00
2024-05-09T05:18:27.662Z,2.60
2024-05-09T05:20:56.062Z,1.67
2024-05-09T05:23:23.436Z,1.80
2024-05-09T05:25:52.725Z,1.73
2024-05-09T05:28:20.182Z,1.70
2024-05-09T05:30:47.410Z,1.60
2024-05-09T05:33:16.068Z,1.90
2024-05-09T05:35:43.497Z,1.77
2024-05-09T05:38:11.038Z,1.97
2024-05-09T05:40:39.253Z,1.97
2024-05-09T05:43:09.215Z,1.60
2024-05-09T05:45:36.398Z,1.50
2024-05-09T05:48:05.783Z,1.70
2024-05-09T05:50:36.569Z,1.63
2024-05-09T05:53:10.351Z,1.50
2024-05-09T05:55:40.574Z,1.77
2024-05-09T05:58:11.162Z,1.63
2024-05-09T06:00:40.093Z,1.80
2024-05-09T06:03:09.636Z,1.60
2024-05-09T06:05:40.235Z,2.00
2024-05-09T06:08:08.286Z,2.17
2024-05-09T06:10:39.135Z,1.50
2024-05-09T06:13:10.497Z,1.50
2024-05-09T06:15:37.417Z,1.40
2024-05-09T06:18:11.673Z,1.20
2024-05-09T06:20:43.968Z,1.20
2024-05-09T06:23:12.174Z,1.40
2024-05-09T06:25:39.424Z,1.30
2024-05-09T06:28:06.794Z,1.40
2024-05-09T06:30:40.065Z,1.10
2024-05-09T06:33:11.750Z,1.30
2024-05-09T06:35:40.697Z,1.08
2024-05-09T06:38:11.454Z,1.10
2024-05-09T06:40:43.896Z,1.40
2024-05-09T06:43:16.155Z,1.00
2024-05-09T06:45:46.127Z,1.20
2024-05-09T06:48:13.099Z,1.20
2024-05-09T06:50:41.207Z,1.20
2024-05-09T06:53:09.222Z,1.23
2024-05-09T06:55:37.079Z,1.33
2024-05-09T06:58:07.516Z,1.27
2024-05-09T07:00:39.180Z,1.50
2024-05-09T07:03:14.161Z,1.50
2024-05-09T07:05:43.601Z,1.65
2024-05-09T07:08:10.525Z,1.30
2024-05-09T07:10:37.775Z,1.40
2024-05-09T07:13:09.468Z,1.35
2024-05-09T07:15:36.358Z,1.30
2024-05-09T07:18:29.896Z,1.20
2024-05-09T07:20:56.752Z,1.67
2024-05-09T07:23:23.550Z,1.60
2024-05-09T07:25:51.020Z,1.20
2024-05-09T07:28:19.272Z,1.23
2024-05-09T07:30:46.345Z,1.25
2024-05-09T07:33:17.885Z,1.42
2024-05-09T07:35:45.322Z,1.30
2024-05-09T07:38:12.457Z,1.40
2024-05-09T07:40:40.909Z,1.33
2024-05-09T07:43:14.196Z,1.20
2024-05-09T07:45:50.664Z,1.40
2024-05-09T07:52:38.556Z,1.10
2024-05-09T07:53:46.539Z,1.00
2024-05-09T07:56:17.676Z,1.20
2024-05-09T07:58:45.786Z,1.00
2024-05-09T08:01:12.829Z,1.15
2024-05-09T08:03:39.903Z,1.33
2024-05-09T08:06:06.821Z,1.05
2024-05-09T08:08:33.547Z,1.00
2024-05-09T08:11:00.531Z,1.08
2024-05-09T08:13:27.252Z,1.10
2024-05-09T08:15:55.182Z,0.88
2024-05-09T08:18:22.001Z,0.95
2024-05-09T08:20:51.843Z,1.20
2024-05-09T08:23:18.639Z,0.88
2024-05-09T08:25:45.450Z,1.20
2024-05-09T08:28:12.915Z,1.00
2024-05-09T08:30:40.009Z,1.05
2024-05-09T08:33:07.772Z,1.33
2024-05-09T08:35:35.328Z,1.00
2024-05-09T08:38:07.138Z,0.88
2024-05-09T08:40:36.783Z,1.00
2024-05-09T08:43:10.858Z,1.13
2024-05-09T08:45:44.321Z,0.90
2024-05-09T08:48:13.861Z,1.25
2024-05-09T08:50:41.798Z,1.35
2024-05-09T08:53:09.195Z,1.20
2024-05-09T08:55:40.550Z,1.13
2024-05-09T08:58:14.366Z,1.33
2024-05-09T09:00:43.591Z,1.00
2024-05-09T09:03:16.022Z,1.00
2024-05-09T09:05:50.774Z,1.10
2024-05-09T09:08:18.702Z,1.10
2024-05-09T09:10:47.704Z,1.00
2024-05-09T09:13:14.801Z,1.08
2024-05-09T09:15:48.362Z,0.80
2024-05-09T09:18:16.415Z,0.90
2024-05-09T09:20:44.503Z,0.93
2024-05-09T09:23:11.431Z,1.15
2024-05-09T09:25:41.503Z,1.00
2024-05-09T09:28:08.985Z,0.80
2024-05-09T09:30:43.204Z,0.95
2024-05-09T09:33:10.543Z,1.02
2024-05-09T09:35:40.183Z,0.90
2024-05-09T09:38:08.124Z,0.70
2024-05-09T09:40:40.707Z,1.05
2024-05-09T09:43:21.554Z,1.48
2024-05-09T09:45:51.559Z,0.77
2024-05-09T09:48:20.479Z,1.00
2024-05-09T09:50:48.767Z,0.75
2024-05-09T09:53:16.150Z,0.80
2024-05-09T09:55:43.876Z,0.90
2024-05-09T09:58:13.858Z,1.00
2024-05-09T10:00:42.019Z,0.77
2024-05-09T10:03:09.330Z,0.90
2024-05-09T10:05:37.451Z,0.90
2024-05-09T10:08:10.601Z,0.80
2024-05-09T10:10:37.634Z,0.75
2024-05-09T10:13:05.198Z,1.00
2024-05-09T10:15:51.652Z,0.80
2024-05-09T10:18:28.017Z,0.70
2024-05-09T10:20:57.505Z,0.90
2024-05-09T10:23:32.984Z,0.90
2024-05-09T10:26:05.379Z,0.82
2024-05-09T10:28:34.064Z,0.70
2024-05-09T10:31:08.835Z,0.90
2024-05-09T10:33:38.971Z,0.70
2024-05-09T10:36:19.546Z,0.90
2024-05-09T10:38:46.368Z,0.70
2024-05-09T10:41:13.347Z,0.85
2024-05-09T10:43:41.439Z,0.80
2024-05-09T10:46:09.733Z,0.90
2024-05-09T10:48:38.073Z,1.05
2024-05-09T10:51:05.033Z,0.75
2024-05-09T10:53:32.304Z,1.05
2024-05-09T10:56:02.297Z,0.70
2024-05-09T10:58:29.025Z,0.90
2024-05-09T11:00:58.377Z,1.02
2024-05-09T11:03:25.590Z,1.20
2024-05-09T11:05:53.361Z,0.95
2024-05-09T11:08:24.067Z,0.85
2024-05-09T11:10:52.705Z,1.30
2024-05-09T11:13:36.406Z,0.80
2024-05-09T11:16:04.273Z,0.80
2024-05-09T11:18:36.177Z,0.77
2024-05-09T11:21:12.550Z,1.00
2024-05-09T11:23:39.889Z,0.90
2024-05-09T11:26:07.007Z,0.90
2024-05-09T11:28:33.868Z,1.10
2024-05-09T11:31:08.830Z,0.77
2024-05-09T11:33:38.312Z,0.82
2024-05-09T11:36:06.365Z,0.80
2024-05-09T11:38:33.655Z,0.88
2024-05-09T11:41:00.435Z,1.02
2024-05-09T11:43:27.235Z,0.82
2024-05-09T11:45:54.799Z,0.80
2024-05-09T11:48:21.862Z,0.82
2024-05-09T11:50:48.735Z,0.88
2024-05-09T11:53:15.523Z,1.00
2024-05-09T11:55:42.261Z,0.82
2024-05-09T11:58:09.218Z,1.10
2024-05-09T12:00:37.618Z,0.80
2024-05-09T12:03:05.964Z,0.90
2024-05-09T12:05:33.966Z,0.85
2024-05-09T12:08:01.722Z,1.00
2024-05-09T12:10:33.500Z,0.90
2024-05-09T12:13:04.932Z,0.90
2024-05-09T12:15:34.047Z,0.73
2024-05-09T12:18:03.607Z,0.80
2024-05-09T12:20:36.866Z,1.00
2024-05-09T12:23:06.552Z,0.90
2024-05-09T12:25:33.547Z,0.85
2024-05-09T12:28:00.640Z,0.80
2024-05-09T12:30:36.011Z,0.75
2024-05-09T12:33:16.006Z,1.00
2024-05-09T12:35:45.384Z,0.70
2024-05-09T12:38:15.286Z,0.93
2024-05-09T12:40:42.441Z,0.80
2024-05-09T12:43:10.601Z,0.90
2024-05-09T12:45:38.747Z,0.80
2024-05-09T12:48:08.431Z,0.90
2024-05-09T12:50:35.963Z,0.80
2024-05-09T12:53:04.188Z,0.60
2024-05-09T12:55:40.492Z,0.70
2024-05-09T12:58:16.752Z,0.90
2024-05-09T13:00:44.758Z,0.93
2024-05-09T13:03:11.732Z,0.80
2024-05-09T13:05:41.516Z,0.65
2024-05-09T13:08:08.968Z,0.70
2024-05-09T13:10:36.130Z,0.63
2024-05-09T13:13:03.077Z,0.80
2024-05-09T13:15:31.260Z,0.60
2024-05-09T13:18:02.071Z,0.93
2024-05-09T13:20:33.785Z,0.80
2024-05-09T13:23:07.356Z,0.82
2024-05-09T13:25:35.359Z,0.90
2024-05-09T13:28:03.754Z,0.98
2024-05-09T13:30:39.058Z,1.10
2024-05-09T13:33:09.628Z,0.80
2024-05-09T13:35:36.878Z,0.88
2024-05-09T13:38:05.012Z,1.02
2024-05-09T13:40:34.938Z,1.00
2024-05-09T13:43:06.406Z,0.93
2024-05-09T13:45:34.423Z,0.80
2024-05-09T13:48:02.666Z,0.90
2024-05-09T13:50:35.912Z,1.00
2024-05-09T13:53:08.102Z,0.90
2024-05-09T13:55:39.376Z,1.00
2024-05-09T13:58:07.115Z,0.77
2024-05-09T14:00:44.159Z,0.95
2024-05-09T14:03:17.943Z,1.23
2024-05-09T14:05:46.733Z,0.82
2024-05-09T14:08:15.801Z,0.90
2024-05-09T14:10:46.487Z,0.85
2024-05-09T14:13:13.765Z,1.17
2024-05-09T14:15:40.960Z,0.80
2024-05-09T14:18:11.178Z,0.85
2024-05-09T14:20:40.088Z,1.00
2024-05-09T14:23:06.836Z,0.93
2024-05-09T14:25:37.940Z,0.73
2024-05-09T14:28:07.732Z,0.90
2024-05-09T14:30:37.682Z,1.15
2024-05-09T14:33:07.117Z,1.20
2024-05-09T14:35:34.886Z,1.00
2024-05-09T14:38:02.369Z,1.00
2024-05-09T14:40:39.283Z,1.15
2024-05-09T14:43:14.235Z,1.40
2024-05-09T14:45:42.106Z,1.50
2024-05-09T14:48:09.789Z,1.50
2024-05-09T14:50:39.411Z,1.52
2024-05-09T14:53:11.927Z,1.35
2024-05-09T14:55:41.162Z,1.00
2024-05-09T14:58:10.499Z,1.30
2024-05-09T15:00:42.997Z,1.38
2024-05-09T15:03:13.308Z,1.30
2024-05-09T15:05:40.695Z,1.20
2024-05-09T15:08:08.661Z,1.23
2024-05-09T15:10:36.926Z,1.38
2024-05-09T15:13:06.591Z,1.27
2024-05-09T15:15:35.054Z,1.50
2024-05-09T15:18:02.133Z,1.40
2024-05-09T15:20:34.626Z,1.30
2024-05-09T15:23:05.184Z,1.35
2024-05-09T15:25:33.741Z,1.35
2024-05-09T15:28:00.817Z,1.30
2024-05-09T15:30:31.044Z,1.17
2024-05-09T15:33:01.491Z,1.27
2024-05-09T15:35:28.616Z,1.23
2024-05-09T15:37:55.956Z,1.15
2024-05-09T15:40:31.746Z,1.20
2024-05-09T15:43:06.133Z,1.60
2024-05-09T15:45:34.884Z,1.20
2024-05-09T15:48:03.265Z,1.33
2024-05-09T15:50:37.215Z,1.45
2024-05-09T15:53:08.537Z,1.25
2024-05-09T15:55:36.322Z,1.30
2024-05-09T15:58:04.565Z,1.50
2024-05-09T16:00:37.869Z,1.40
2024-05-09T16:03:09.413Z,1.30
2024-05-09T16:05:36.942Z,1.00
2024-05-09T16:08:05.022Z,1.30
2024-05-09T16:10:34.581Z,1.05
2024-05-09T16:13:02.476Z,1.10
2024-05-09T16:15:30.067Z,1.35
2024-05-09T16:17:57.244Z,1.40
2024-05-09T16:22:54.521Z,1.42
2024-05-09T16:25:21.399Z,1.30
2024-05-09T16:27:48.584Z,1.35
2024-05-09T16:30:24.181Z,1.30
2024-05-09T16:32:55.296Z,1.20
2024-05-09T16:35:22.089Z,1.10
2024-05-09T16:37:49.465Z,1.40
2024-05-09T16:40:25.298Z,1.10
2024-05-09T16:43:04.093Z,1.85
2024-05-09T16:45:31.298Z,1.30
2024-05-09T16:47:59.358Z,1.30
2024-05-09T16:50:31.556Z,1.20
2024-05-09T16:53:00.589Z,1.40
2024-05-09T16:55:27.643Z,1.50
2024-05-09T16:57:55.543Z,1.42
2024-05-09T17:00:31.648Z,1.40
2024-05-09T17:03:07.186Z,1.30
2024-05-09T17:05:35.259Z,1.30
2024-05-09T17:08:02.576Z,1.50
2024-05-09T17:10:33.236Z,1.45
2024-05-09T17:13:02.736Z,1.20
2024-05-09T17:15:30.057Z,1.40
2024-05-09T17:17:57.072Z,1.10
2024-05-09T17:20:31.723Z,1.30
2024-05-09T17:23:03.347Z,1.23
2024-05-09T17:25:30.132Z,1.20
2024-05-09T17:27:59.651Z,1.25
2024-05-09T17:30:32.443Z,1.13
2024-05-09T17:33:07.982Z,1.30
2024-05-09T17:35:36.712Z,1.30
2024-05-09T17:38:05.053Z,1.00
2024-05-09T17:40:35.760Z,1.63
2024-05-09T17:43:05.397Z,1.30
2024-05-09T17:45:33.122Z,1.30
2024-05-09T17:48:00.795Z,1.20
2024-05-09T17:50:34.980Z,1.00
2024-05-09T17:53:04.562Z,1.05
2024-05-09T17:55:31.584Z,1.25
2024-05-09T17:57:58.561Z,1.30
2024-05-09T18:00:36.384Z,0.90
2024-05-09T18:03:07.665Z,1.02
2024-05-09T18:05:38.242Z,1.00
2024-05-09T18:08:06.775Z,0.90
2024-05-09T18:10:37.810Z,1.00
2024-05-09T18:13:10.161Z,1.08
2024-05-09T18:15:38.197Z,1.00
2024-05-09T18:18:06.571Z,1.00
2024-05-09T18:20:41.704Z,0.90
2024-05-09T18:23:13.531Z,1.17
2024-05-09T18:25:40.943Z,1.10
2024-05-09T18:28:08.172Z,0.80
2024-05-09T18:30:36.755Z,0.90
2024-05-09T18:33:06.556Z,1.40
2024-05-09T18:35:34.761Z,0.95
2024-05-09T18:38:01.632Z,1.02
2024-05-09T18:40:34.165Z,0.90
2024-05-09T18:43:05.675Z,1.17
2024-05-09T18:45:33.935Z,1.20
2024-05-09T18:48:01.105Z,1.70
2024-05-09T18:50:34.593Z,1.57
2024-05-09T18:53:10.195Z,2.80
2024-05-09T18:55:37.575Z,5.83
2024-05-09T18:58:05.023Z,5.37
2024-05-09T19:00:36.252Z,2.43
2024-05-09T19:03:17.738Z,1.37
2024-05-09T19:05:46.015Z,1.27
2024-05-09T19:08:14.502Z,1.17
2024-05-09T19:10:41.649Z,1.40
2024-05-09T19:13:12.122Z,1.47
2024-05-09T19:15:43.269Z,2.60
2024-05-09T19:18:14.203Z,7.77
2024-05-09T19:20:41.712Z,5.07
2024-05-09T19:23:08.544Z,3.40
2024-05-09T19:25:36.196Z,2.37
2024-05-09T19:28:04.175Z,1.80
2024-05-09T19:30:38.596Z,2.00
2024-05-09T19:33:09.446Z,2.30
2024-05-09T19:35:37.064Z,1.93
2024-05-09T19:38:04.332Z,1.60
2024-05-09T19:40:33.484Z,1.70
2024-05-09T19:43:03.193Z,1.73
2024-05-09T19:45:32.347Z,1.80
2024-05-09T19:47:59.402Z,2.10
2024-05-09T19:50:32.730Z,1.63
2024-05-09T19:53:07.869Z,1.80
2024-05-09T19:55:35.108Z,1.67
2024-05-09T19:58:05.225Z,1.50
2024-05-09T20:00:39.547Z,1.50
2024-05-09T20:03:09.273Z,1.50
2024-05-09T20:05:37.158Z,1.47
2024-05-09T20:08:04.933Z,1.97
2024-05-09T20:10:34.090Z,1.60
2024-05-09T20:13:02.878Z,1.73
2024-05-09T20:15:30.182Z,1.47
2024-05-09T20:17:57.135Z,1.77
2024-05-09T20:20:32.898Z,1.50
2024-05-09T20:23:07.281Z,1.40
2024-05-09T20:25:34.043Z,1.47
2024-05-09T20:28:01.060Z,1.40
2024-05-09T20:30:32.237Z,1.63
2024-05-09T20:33:03.020Z,1.50
2024-05-09T20:35:32.738Z,1.83
2024-05-09T20:38:01.281Z,1.50
2024-05-09T20:40:33.046Z,1.80
2024-05-09T20:43:03.920Z,1.80
2024-05-09T20:45:30.744Z,1.40
2024-05-09T20:47:57.971Z,1.57
2024-05-09T20:50:35.558Z,1.20
2024-05-09T20:53:08.526Z,1.70
2024-05-09T20:55:35.404Z,1.40
2024-05-09T20:58:02.306Z,1.80
2024-05-09T21:00:35.544Z,1.43
2024-05-09T21:03:08.042Z,1.40
2024-05-09T21:05:35.553Z,1.70
2024-05-09T21:08:02.939Z,1.50
2024-05-09T21:10:32.581Z,1.67
2024-05-09T21:13:01.890Z,1.60
2024-05-09T21:15:29.440Z,1.63
2024-05-09T21:17:56.381Z,1.50
2024-05-09T21:20:29.083Z,1.50
2024-05-09T21:22:58.657Z,1.60
2024-05-09T21:25:25.629Z,1.60
2024-05-09T21:27:53.195Z,1.50
2024-05-09T21:30:31.468Z,1.60
2024-05-09T21:33:08.812Z,1.73
2024-05-09T21:35:36.326Z,1.50
2024-05-09T21:38:04.540Z,1.67
2024-05-09T21:40:34.779Z,1.80
2024-05-09T21:43:04.367Z,1.57
2024-05-09T21:45:31.699Z,1.47
2024-05-09T21:47:58.860Z,1.60
2024-05-09T21:50:32.471Z,1.40
2024-05-09T21:53:06.620Z,1.80
2024-05-09T21:55:33.917Z,1.93
2024-05-09T21:58:01.948Z,1.83
2024-05-09T22:00:35.786Z,1.70
2024-05-09T22:03:06.195Z,1.47
2024-05-09T22:05:33.292Z,1.73
2024-05-09T22:08:00.315Z,1.67
2024-05-09T22:10:33.356Z,1.40
2024-05-09T22:13:02.607Z,1.90
2024-05-09T22:15:29.455Z,1.60
2024-05-09T22:17:57.386Z,1.70
2024-05-09T22:20:34.262Z,1.90
2024-05-09T22:23:05.056Z,2.07
2024-05-09T22:25:32.583Z,1.53
2024-05-09T22:28:02.300Z,1.80
2024-05-09T22:32:59.233Z,1.80
2024-05-09T22:35:26.338Z,1.87
2024-05-09T22:37:53.098Z,1.60
2024-05-09T22:40:28.963Z,1.43
2024-05-09T22:43:05.655Z,1.73
2024-05-09T22:45:32.715Z,1.90
2024-05-09T22:47:59.826Z,1.90
2024-05-09T22:50:30.839Z,1.60
2024-05-09T22:52:59.830Z,1.70
2024-05-09T22:55:26.619Z,1.80
2024-05-09T22:57:53.494Z,1.50
2024-05-09T23:00:29.154Z,1.70
2024-05-09T23:03:02.256Z,1.73
2024-05-09T23:05:29.777Z,1.50
2024-05-09T23:07:56.822Z,1.63
2024-05-09T23:10:31.667Z,1.90
2024-05-09T23:13:02.994Z,1.60
2024-05-09T23:15:30.120Z,1.87
2024-05-09T23:17:57.845Z,1.60
2024-05-09T23:22:54.644Z,1.67
2024-05-09T23:25:21.464Z,1.53
2024-05-09T23:27:48.270Z,1.93
2024-05-09T23:30:25.840Z,1.60
2024-05-09T23:33:00.531Z,1.60
2024-05-09T23:35:27.482Z,1.70
2024-05-09T23:37:54.256Z,1.80
2024-05-09T23:40:23.330Z,1.80
2024-05-09T23:42:50.884Z,1.87
2024-05-09T23:45:17.725Z,1.53
2024-05-09T23:47:44.814Z,1.70
2024-05-09T23:50:16.945Z,1.70
2024-05-09T23:52:50.504Z,2.07
2024-05-09T23:55:17.422Z,2.13
2024-05-09T23:57:44.453Z,2.10
